Lake Intervale, New Jersey
Current Conditions -  °F | °C
As of 8:53 AM on Saturday 22 Nov 2014 (Local Time) from KCDW Reporting Station
Clear Clear  
Wind Chill: 27°   Ceiling: Unl
Heat Index: 27°   Visibility: 10mi
Dew Point: 11°   Wind: 3mph
Humidity: 51%   Direction: NA
Pressure: 30.48"   Gusts: NA
Location:  40.929°N, 74.4211°W
Report Text: KCDW 221353Z AUTO VRB03KT 10SM CLR M03/M12 A3048 RMK AO2 SLP327 T10281117 TSNO
Loading
Personal Weather Stations






























Interactive Weather Map New forecast layout! Learn more

10-Day Weather Forecast

Advertisements
Track Severe Weather on mobile